Time;durP1;ratioP1;P1;durP2;ratioP2;P2;SDS_P1;SDS_P2;PMS_P1;PMS_P2;Temp;Humidity;BMP_temperature;BMP_pressure;BME280_temperature;BME280_humidity;BME280_pressure;Samples;Min_cycle;Max_cycle;Signal;HPM_P1;HPM_P2
2023/04/14 00:05:56;;;;;;;30.2;24.2;;;;;;;9.5;87.7;97720;;;;
2023/04/14 00:16:56;;;;;;;30.2;24.2;;;;;;;9.6;87.6;97710;;;;
2023/04/14 00:26:56;;;;;;;30.2;24.2;;;;;;;9.5;87.5;97700;;;;
2023/04/14 00:36:56;;;;;;;35.3;27.6;;;;;;;9.5;87.1;97700;;;;
2023/04/14 00:47:56;;;;;;;35.3;27.6;;;;;;;9.4;86.8;97690;;;;
2023/04/14 00:58:56;;;;;;;35.3;27.6;;;;;;;9.3;87.2;97680;;;;
2023/04/14 01:09:56;;;;;;;33.9;27.1;;;;;;;9.3;87.2;97680;;;;
2023/04/14 01:19:56;;;;;;;33.9;27.1;;;;;;;9.2;87.3;97670;;;;
2023/04/14 01:29:56;;;;;;;33.9;27.1;;;;;;;9.1;87.7;97670;;;;
2023/04/14 01:39:56;;;;;;;31.7;23.5;;;;;;;9.2;87.6;97670;;;;
2023/04/14 01:50:56;;;;;;;31.7;23.5;;;;;;;9.1;87.2;97650;;;;
2023/04/14 02:00:56;;;;;;;31.7;23.5;;;;;;;9.2;87.3;97650;;;;
2023/04/14 02:11:57;;;;;;;28.9;19.5;;;;;;;9.2;86.9;97630;;;;
2023/04/14 02:21:56;;;;;;;28.9;19.5;;;;;;;9.1;87.1;97620;;;;
2023/04/14 02:32:57;;;;;;;28.9;19.5;;;;;;;9.1;86.8;97620;;;;
2023/04/14 02:43:56;;;;;;;32.5;22.7;;;;;;;8.9;86.2;97600;;;;
2023/04/14 02:53:56;;;;;;;32.5;22.7;;;;;;;8.5;86.6;97590;;;;
2023/04/14 03:03:56;;;;;;;29;19.2;;;;;;;8.4;87.1;97590;;;;
2023/04/14 03:13:56;;;;;;;29;19.2;;;;;;;8.4;87.3;97590;;;;
2023/04/14 03:24:57;;;;;;;29;19.2;;;;;;;8.5;87.6;97580;;;;
2023/04/14 03:34:56;;;;;;;26.2;17.2;;;;;;;8.7;87.7;97570;;;;
2023/04/14 03:44:57;;;;;;;26.2;17.2;;;;;;;8.7;87.9;97570;;;;
2023/04/14 03:55:57;;;;;;;26.2;17.2;;;;;;;8.7;88.7;97570;;;;
2023/04/14 04:05:56;;;;;;;26.7;18.9;;;;;;;8.8;89.2;97560;;;;
2023/04/14 04:15:56;;;;;;;26.7;18.9;;;;;;;9;89;97570;;;;
2023/04/14 04:26:57;;;;;;;26.7;18.9;;;;;;;9.2;88.4;97580;;;;
2023/04/14 04:36:56;;;;;;;23.8;16.9;;;;;;;9.4;87.8;97570;;;;
2023/04/14 04:47:56;;;;;;;23.8;16.9;;;;;;;9.6;87.2;97570;;;;
2023/04/14 04:58:57;;;;;;;23.8;16.9;;;;;;;9.8;86.6;97560;;;;
2023/04/14 05:08:56;;;;;;;21.7;16.8;;;;;;;9.8;86.1;97560;;;;
2023/04/14 05:18:56;;;;;;;21.7;16.8;;;;;;;10;85.6;97540;;;;
2023/04/14 05:28:56;;;;;;;21.7;16.8;;;;;;;10.2;85.3;97510;;;;
2023/04/14 05:38:57;;;;;;;24.4;19.4;;;;;;;10.2;83.9;97490;;;;
2023/04/14 05:49:57;;;;;;;24.4;19.4;;;;;;;10.4;83.1;97480;;;;
2023/04/14 05:59:56;;;;;;;24.4;19.4;;;;;;;10.5;82.7;97470;;;;
2023/04/14 06:09:56;;;;;;;25.2;19.4;;;;;;;10.7;82.3;97490;;;;
2023/04/14 06:19:57;;;;;;;25.2;19.4;;;;;;;10.9;81.1;97500;;;;
2023/04/14 06:29:57;;;;;;;25.2;19.4;;;;;;;11.1;80.3;97490;;;;
2023/04/14 06:40:56;;;;;;;24.2;19;;;;;;;11.6;79.5;97480;;;;
2023/04/14 06:50:56;;;;;;;24.2;19;;;;;;;11.8;77.9;97460;;;;
2023/04/14 07:01:57;;;;;;;24.2;19;;;;;;;11.8;76.3;97430;;;;
2023/04/14 07:12:56;;;;;;;22.7;17.7;;;;;;;11.9;75.3;97440;;;;
2023/04/14 07:22:56;;;;;;;22.7;17.7;;;;;;;12.4;73.4;97440;;;;
2023/04/14 07:33:56;;;;;;;17.8;14.7;;;;;;;12.8;69.4;97430;;;;
2023/04/14 07:43:57;;;;;;;17.8;14.7;;;;;;;13.1;68.9;97430;;;;
2023/04/14 07:53:57;;;;;;;17.8;14.7;;;;;;;13.8;66.9;97430;;;;
2023/04/14 08:04:56;;;;;;;15.1;11.5;;;;;;;14;66;97410;;;;
2023/04/14 08:14:56;;;;;;;15.1;11.5;;;;;;;14.1;65.5;97410;;;;
2023/04/14 08:24:56;;;;;;;15.1;11.5;;;;;;;14.2;64.3;97390;;;;
2023/04/14 08:35:56;;;;;;;14.2;10.2;;;;;;;14.2;65.3;97390;;;;
2023/04/14 08:46:57;;;;;;;14.2;10.2;;;;;;;14.4;64.4;97380;;;;
2023/04/14 08:56:57;;;;;;;14.2;10.2;;;;;;;14.5;62.7;97390;;;;
2023/04/14 09:06:57;;;;;;;11.7;8;;;;;;;14.8;63;97390;;;;
2023/04/14 09:17:56;;;;;;;11.7;8;;;;;;;15;60.9;97380;;;;
2023/04/14 09:27:57;;;;;;;11.7;8;;;;;;;15.4;59.4;97370;;;;
2023/04/14 09:38:57;;;;;;;9.5;6.2;;;;;;;15.6;58;97360;;;;
2023/04/14 09:49:56;;;;;;;9.5;6.2;;;;;;;15.7;56.7;97340;;;;
2023/04/14 09:59:57;;;;;;;9.5;6.2;;;;;;;15.5;56.3;97320;;;;
2023/04/14 10:10:57;;;;;;;11;4.8;;;;;;;16;54.9;97310;;;;
2023/04/14 10:21:57;;;;;;;11;4.8;;;;;;;16;53.8;97300;;;;
2023/04/14 10:32:57;;;;;;;6;3.8;;;;;;;16;52.8;97300;;;;
2023/04/14 10:42:57;;;;;;;6;3.8;;;;;;;16;52.4;97290;;;;
2023/04/14 10:53:57;;;;;;;6;3.8;;;;;;;16.1;52;97290;;;;
2023/04/14 11:03:57;;;;;;;6.4;3.3;;;;;;;16.4;51.7;97290;;;;
2023/04/14 11:13:57;;;;;;;6.4;3.3;;;;;;;16.9;50.8;97280;;;;
2023/04/14 11:23:57;;;;;;;6.4;3.3;;;;;;;17.6;48.7;97270;;;;
2023/04/14 11:33:57;;;;;;;5.4;3;;;;;;;17.1;48.7;97260;;;;
2023/04/14 11:43:57;;;;;;;5.4;3;;;;;;;17.2;49.7;97250;;;;
2023/04/14 11:54:57;;;;;;;5.4;3;;;;;;;17.4;48.4;97250;;;;
2023/04/14 12:05:58;;;;;;;6.5;3.3;;;;;;;17.4;47.7;97240;;;;
2023/04/14 12:15:57;;;;;;;6.5;3.3;;;;;;;17.4;47.5;97230;;;;
2023/04/14 12:25:57;;;;;;;6.5;3.3;;;;;;;17.4;46.5;97220;;;;
2023/04/14 12:35:57;;;;;;;4.9;2.6;;;;;;;17.4;46.1;97200;;;;
2023/04/14 12:45:57;;;;;;;4.9;2.6;;;;;;;17.4;47.1;97190;;;;
2023/04/14 12:56:57;;;;;;;4.9;2.6;;;;;;;18;45.4;97170;;;;
2023/04/14 13:06:57;;;;;;;6;3;;;;;;;18.3;46.1;97150;;;;
2023/04/14 13:16:57;;;;;;;6;3;;;;;;;18.1;46.8;97160;;;;
2023/04/14 13:27:57;;;;;;;6;3;;;;;;;17.6;46.3;97140;;;;
2023/04/14 13:37:57;;;;;;;6.3;3.7;;;;;;;17.5;46.3;97140;;;;
2023/04/14 13:47:57;;;;;;;6.3;3.7;;;;;;;17.2;47;97140;;;;
2023/04/14 13:57:57;;;;;;;6.3;3.7;;;;;;;17.3;47.8;97130;;;;
2023/04/14 14:07:57;;;;;;;7;4.4;;;;;;;17.4;48.3;97130;;;;
2023/04/14 14:18:58;;;;;;;7;4.4;;;;;;;17.1;47.9;97130;;;;
2023/04/14 14:28:57;;;;;;;7;4.4;;;;;;;17.1;48.1;97130;;;;
2023/04/14 14:38:57;;;;;;;7.2;4.3;;;;;;;17;47.9;97130;;;;
2023/04/14 14:49:59;;;;;;;7.2;4.3;;;;;;;16.8;48.5;97120;;;;
2023/04/14 15:00:57;;;;;;;7.2;4.3;;;;;;;16.5;49.3;97140;;;;
2023/04/14 15:10:57;;;;;;;7.6;4.4;;;;;;;16.4;49.6;97140;;;;
2023/04/14 15:20:57;;;;;;;7.6;4.4;;;;;;;16.3;49.5;97150;;;;
2023/04/14 15:31:57;;;;;;;7.6;4.4;;;;;;;16.2;49.9;97160;;;;
2023/04/14 15:41:57;;;;;;;7.8;4.7;;;;;;;16;52.1;97170;;;;
2023/04/14 15:51:57;;;;;;;7.8;4.7;;;;;;;15.7;54.5;97170;;;;
2023/04/14 16:01:58;;;;;;;;;;;;;;;15.6;54.8;97160;;;;
2023/04/14 16:12:57;;;;;;;13.6;6.2;;;;;;;15.4;56.7;97160;;;;
2023/04/14 16:22:57;;;;;;;13.6;6.2;;;;;;;15.1;58.7;97150;;;;
2023/04/14 16:33:57;;;;;;;9.5;6.4;;;;;;;14.8;62;97160;;;;
2023/04/14 16:44:57;;;;;;;9.5;6.4;;;;;;;14.6;63.2;97150;;;;
2023/04/14 16:55:57;;;;;;;9.5;6.4;;;;;;;14.3;64.2;97150;;;;
2023/04/14 17:06:57;;;;;;;12.4;6.5;;;;;;;14.1;66.4;97160;;;;
2023/04/14 17:16:57;;;;;;;12.4;6.5;;;;;;;13.8;68.2;97170;;;;
2023/04/14 17:26:57;;;;;;;12.4;6.5;;;;;;;13.6;69;97170;;;;
2023/04/14 17:36:57;;;;;;;11.1;7.7;;;;;;;13.5;69.1;97180;;;;
2023/04/14 17:46:59;;;;;;;11.1;7.7;;;;;;;13.5;68.2;97190;;;;
2023/04/14 17:57:57;;;;;;;11.1;7.7;;;;;;;13.6;67;97200;;;;
2023/04/14 18:07:57;;;;;;;;;;;;;;;13.8;66;97200;;;;
2023/04/14 18:17:57;;;;;;;7.6;5.1;;;;;;;13.7;66.8;97190;;;;
2023/04/14 18:27:57;;;;;;;7.6;5.1;;;;;;;13.7;67.2;97200;;;;
2023/04/14 18:38:58;;;;;;;7.6;5.1;;;;;;;13.5;68;97190;;;;
2023/04/14 18:48:57;;;;;;;7.2;4;;;;;;;13.3;68.8;97200;;;;
2023/04/14 18:59:57;;;;;;;7.2;4;;;;;;;13.2;70.3;97210;;;;
2023/04/14 19:09:57;;;;;;;7.2;4;;;;;;;13.1;71.1;97210;;;;
2023/04/14 19:20:57;;;;;;;7.6;4.5;;;;;;;12.9;72.1;97200;;;;
2023/04/14 19:31:57;;;;;;;7.6;4.5;;;;;;;12.8;72.6;97200;;;;
2023/04/14 19:41:57;;;;;;;7.6;4.5;;;;;;;12.6;73.1;97210;;;;
2023/04/14 19:52:57;;;;;;;7.4;4.1;;;;;;;12.5;73.5;97210;;;;
2023/04/14 20:02:57;;;;;;;7.4;4.1;;;;;;;12.5;73.6;97210;;;;
2023/04/14 20:13:57;;;;;;;6.5;3.4;;;;;;;12.4;74.5;97200;;;;
2023/04/14 20:23:57;;;;;;;6.5;3.4;;;;;;;12.4;74.9;97210;;;;
2023/04/14 20:33:57;;;;;;;6.5;3.4;;;;;;;12.3;75.5;97220;;;;
2023/04/14 20:43:57;;;;;;;7.5;4.3;;;;;;;12.2;76;97210;;;;
2023/04/14 20:54:57;;;;;;;7.5;4.3;;;;;;;12.2;75.5;97220;;;;
2023/04/14 21:04:57;;;;;;;7.5;4.3;;;;;;;12.2;75.4;97260;;;;
2023/04/14 21:15:57;;;;;;;6.6;4;;;;;;;12.1;75.8;97280;;;;
2023/04/14 21:25:58;;;;;;;6.6;4;;;;;;;12;76;97280;;;;
2023/04/14 21:35:57;;;;;;;6.6;4;;;;;;;11.9;76.2;97280;;;;
2023/04/14 21:46:57;;;;;;;7.4;4.2;;;;;;;11.7;76.5;97290;;;;
2023/04/14 21:56:57;;;;;;;7.4;4.2;;;;;;;11.6;76.6;97300;;;;
2023/04/14 22:06:57;;;;;;;7.4;4.2;;;;;;;11.5;75.7;97300;;;;
2023/04/14 22:17:57;;;;;;;7.8;3.9;;;;;;;11.4;75.5;97300;;;;
2023/04/14 22:27:57;;;;;;;7.8;3.9;;;;;;;11.2;75.7;97300;;;;
2023/04/14 22:37:57;;;;;;;7.8;3.9;;;;;;;11.1;75.7;97310;;;;
2023/04/14 22:48:57;;;;;;;5.4;2.8;;;;;;;11;75.2;97330;;;;
2023/04/14 22:58:57;;;;;;;5.4;2.8;;;;;;;10.9;74.9;97340;;;;
2023/04/14 23:09:57;;;;;;;5.4;2.8;;;;;;;10.7;74.9;97340;;;;
2023/04/14 23:20:57;;;;;;;5.1;2.7;;;;;;;10.4;74.2;97350;;;;
2023/04/14 23:30:57;;;;;;;5.1;2.7;;;;;;;10.3;74.4;97350;;;;
2023/04/14 23:41:57;;;;;;;5.1;2.7;;;;;;;10.1;74.2;97340;;;;
2023/04/14 23:51:57;;;;;;;3.6;1.9;;;;;;;10;74.7;97370;;;;
